sensor_id;sensor_type;location;lat;lon;timestamp;pressure;altitude;pressure_sealevel;temperature;humidity
21109;BME280;10712;52.944;9.098;2023-06-10T00:02:08;101647.69;;;24.29;45.32
21109;BME280;10712;52.944;9.098;2023-06-10T00:04:34;101651.75;;;24.25;45.42
21109;BME280;10712;52.944;9.098;2023-06-10T00:07:04;101651.75;;;24.25;45.30
21109;BME280;10712;52.944;9.098;2023-06-10T00:09:39;101649.19;;;24.14;45.90
21109;BME280;10712;52.944;9.098;2023-06-10T00:12:07;101652.97;;;24.13;45.76
21109;BME280;10712;52.944;9.098;2023-06-10T00:14:39;101650.16;;;24.05;45.91
21109;BME280;10712;52.944;9.098;2023-06-10T00:17:06;101654.72;;;24.05;46.23
21109;BME280;10712;52.944;9.098;2023-06-10T00:19:34;101649.16;;;24.06;46.07
21109;BME280;10712;52.944;9.098;2023-06-10T00:22:00;101654.13;;;24.11;46.34
21109;BME280;10712;52.944;9.098;2023-06-10T00:24:26;101660.72;;;24.08;46.28
21109;BME280;10712;52.944;9.098;2023-06-10T00:26:52;101653.88;;;24.04;46.48
21109;BME280;10712;52.944;9.098;2023-06-10T00:29:19;101657.38;;;23.97;46.33
21109;BME280;10712;52.944;9.098;2023-06-10T00:31:45;101648.25;;;23.88;46.66
21109;BME280;10712;52.944;9.098;2023-06-10T00:34:12;101654.31;;;23.82;46.85
21109;BME280;10712;52.944;9.098;2023-06-10T00:36:38;101649.47;;;23.76;46.85
21109;BME280;10712;52.944;9.098;2023-06-10T00:39:04;101645.81;;;23.67;46.83
21109;BME280;10712;52.944;9.098;2023-06-10T00:41:30;101652.00;;;23.60;47.05
21109;BME280;10712;52.944;9.098;2023-06-10T00:43:56;101650.91;;;23.52;46.77
21109;BME280;10712;52.944;9.098;2023-06-10T00:46:24;101662.34;;;23.46;47.17
21109;BME280;10712;52.944;9.098;2023-06-10T00:48:52;101651.06;;;23.41;47.33
21109;BME280;10712;52.944;9.098;2023-06-10T00:51:19;101665.97;;;23.37;47.31
21109;BME280;10712;52.944;9.098;2023-06-10T00:53:45;101660.84;;;23.34;47.42
21109;BME280;10712;52.944;9.098;2023-06-10T00:56:11;101672.31;;;23.28;47.39
21109;BME280;10712;52.944;9.098;2023-06-10T00:58:38;101665.75;;;23.21;47.49
21109;BME280;10712;52.944;9.098;2023-06-10T01:01:04;101669.75;;;23.17;47.79
21109;BME280;10712;52.944;9.098;2023-06-10T01:03:30;101674.50;;;23.15;47.71
21109;BME280;10712;52.944;9.098;2023-06-10T01:06:19;101670.22;;;23.12;48.09
21109;BME280;10712;52.944;9.098;2023-06-10T01:11:35;101681.75;;;23.24;48.01
21109;BME280;10712;52.944;9.098;2023-06-10T01:14:04;101678.03;;;23.25;48.06
21109;BME280;10712;52.944;9.098;2023-06-10T01:16:31;101678.03;;;23.25;48.19
21109;BME280;10712;52.944;9.098;2023-06-10T01:18:56;101669.88;;;23.25;48.44
21109;BME280;10712;52.944;9.098;2023-06-10T01:21:24;101677.75;;;23.28;48.38
21109;BME280;10712;52.944;9.098;2023-06-10T01:23:56;101683.19;;;23.28;47.96
21109;BME280;10712;52.944;9.098;2023-06-10T01:26:30;101685.06;;;23.28;48.49
21109;BME280;10712;52.944;9.098;2023-06-10T01:29:06;101679.03;;;23.24;47.94
21109;BME280;10712;52.944;9.098;2023-06-10T01:31:48;101679.50;;;23.10;47.79
21109;BME280;10712;52.944;9.098;2023-06-10T01:34:18;101686.13;;;22.98;47.97
21109;BME280;10712;52.944;9.098;2023-06-10T01:36:48;101693.88;;;22.93;47.78
21109;BME280;10712;52.944;9.098;2023-06-10T01:39:20;101687.03;;;22.89;47.78
21109;BME280;10712;52.944;9.098;2023-06-10T01:41:49;101688.31;;;22.85;48.03
21109;BME280;10712;52.944;9.098;2023-06-10T01:44:23;101690.22;;;22.74;48.21
21109;BME280;10712;52.944;9.098;2023-06-10T01:46:49;101694.47;;;22.67;48.45
21109;BME280;10712;52.944;9.098;2023-06-10T01:49:15;101703.63;;;22.66;48.57
21109;BME280;10712;52.944;9.098;2023-06-10T01:51:43;101698.75;;;22.70;48.36
21109;BME280;10712;52.944;9.098;2023-06-10T01:54:09;101701.75;;;22.67;48.70
21109;BME280;10712;52.944;9.098;2023-06-10T01:56:35;101699.75;;;22.59;48.62
21109;BME280;10712;52.944;9.098;2023-06-10T01:59:01;101702.59;;;22.48;48.70
21109;BME280;10712;52.944;9.098;2023-06-10T02:01:27;101704.19;;;22.41;48.77
21109;BME280;10712;52.944;9.098;2023-06-10T02:03:53;101706.47;;;22.36;48.31
21109;BME280;10712;52.944;9.098;2023-06-10T02:06:18;101711.91;;;22.26;48.47
21109;BME280;10712;52.944;9.098;2023-06-10T02:08:45;101709.31;;;22.15;48.39
21109;BME280;10712;52.944;9.098;2023-06-10T02:11:11;101707.59;;;22.05;48.45
21109;BME280;10712;52.944;9.098;2023-06-10T02:13:38;101712.72;;;21.98;48.77
21109;BME280;10712;52.944;9.098;2023-06-10T02:16:04;101717.53;;;21.94;48.96
21109;BME280;10712;52.944;9.098;2023-06-10T02:18:31;101725.13;;;22.00;49.34
21109;BME280;10712;52.944;9.098;2023-06-10T02:20:57;101725.16;;;22.10;49.45
21109;BME280;10712;52.944;9.098;2023-06-10T02:23:23;101728.75;;;22.11;49.23
21109;BME280;10712;52.944;9.098;2023-06-10T02:25:48;101735.72;;;22.04;49.31
21109;BME280;10712;52.944;9.098;2023-06-10T02:28:14;101732.81;;;21.95;49.33
21109;BME280;10712;52.944;9.098;2023-06-10T02:30:42;101732.34;;;21.81;49.66
21109;BME280;10712;52.944;9.098;2023-06-10T02:33:08;101731.75;;;21.77;49.60
21109;BME280;10712;52.944;9.098;2023-06-10T02:35:41;101732.31;;;21.71;49.77
21109;BME280;10712;52.944;9.098;2023-06-10T02:38:07;101736.28;;;21.67;49.78
21109;BME280;10712;52.944;9.098;2023-06-10T02:40:33;101734.56;;;21.66;49.85
21109;BME280;10712;52.944;9.098;2023-06-10T02:42:59;101735.03;;;21.71;50.06
21109;BME280;10712;52.944;9.098;2023-06-10T02:45:25;101737.19;;;21.77;50.05
21109;BME280;10712;52.944;9.098;2023-06-10T02:47:52;101728.31;;;21.75;50.09
21109;BME280;10712;52.944;9.098;2023-06-10T02:50:18;101732.59;;;21.68;50.02
21109;BME280;10712;52.944;9.098;2023-06-10T02:53:11;101733.13;;;21.62;50.20
21109;BME280;10712;52.944;9.098;2023-06-10T02:55:41;101734.84;;;21.63;50.13
21109;BME280;10712;52.944;9.098;2023-06-10T02:58:11;101729.13;;;21.56;50.04
21109;BME280;10712;52.944;9.098;2023-06-10T03:00:37;101728.50;;;21.53;50.05
21109;BME280;10712;52.944;9.098;2023-06-10T03:03:06;101728.06;;;21.48;49.96
21109;BME280;10712;52.944;9.098;2023-06-10T03:05:41;101732.75;;;21.46;50.20
21109;BME280;10712;52.944;9.098;2023-06-10T03:08:07;101733.06;;;21.43;49.95
21109;BME280;10712;52.944;9.098;2023-06-10T03:10:35;101737.00;;;21.39;49.87
21109;BME280;10712;52.944;9.098;2023-06-10T03:13:02;101738.59;;;21.41;50.41
21109;BME280;10712;52.944;9.098;2023-06-10T03:15:29;101735.03;;;21.41;49.88
21109;BME280;10712;52.944;9.098;2023-06-10T03:18:00;101733.56;;;21.37;49.86
21109;BME280;10712;52.944;9.098;2023-06-10T03:20:27;101740.06;;;21.25;50.34
21109;BME280;10712;52.944;9.098;2023-06-10T03:22:53;101727.56;;;21.12;50.11
21109;BME280;10712;52.944;9.098;2023-06-10T03:25:19;101742.50;;;21.07;50.30
21109;BME280;10712;52.944;9.098;2023-06-10T03:27:49;101746.09;;;21.07;50.73
21109;BME280;10712;52.944;9.098;2023-06-10T03:30:16;101745.53;;;21.13;50.75
21109;BME280;10712;52.944;9.098;2023-06-10T03:32:44;101741.22;;;21.22;50.51
21109;BME280;10712;52.944;9.098;2023-06-10T03:35:13;101737.78;;;21.20;50.83
21109;BME280;10712;52.944;9.098;2023-06-10T03:37:40;101751.19;;;21.21;51.09
21109;BME280;10712;52.944;9.098;2023-06-10T03:40:08;101750.38;;;21.31;50.97
21109;BME280;10712;52.944;9.098;2023-06-10T03:42:35;101737.84;;;21.30;51.72
21109;BME280;10712;52.944;9.098;2023-06-10T03:45:03;101751.84;;;21.35;51.86
21109;BME280;10712;52.944;9.098;2023-06-10T03:47:35;101751.63;;;21.47;51.83
21109;BME280;10712;52.944;9.098;2023-06-10T03:50:06;101757.34;;;21.54;51.86
21109;BME280;10712;52.944;9.098;2023-06-10T03:52:35;101756.81;;;21.60;52.08
21109;BME280;10712;52.944;9.098;2023-06-10T03:55:02;101756.56;;;21.63;52.43
21109;BME280;10712;52.944;9.098;2023-06-10T03:57:28;101755.72;;;21.72;52.31
21109;BME280;10712;52.944;9.098;2023-06-10T03:59:54;101755.44;;;21.75;51.97
21109;BME280;10712;52.944;9.098;2023-06-10T04:02:22;101758.28;;;21.74;52.24
21109;BME280;10712;52.944;9.098;2023-06-10T04:04:49;101765.44;;;21.75;52.66
21109;BME280;10712;52.944;9.098;2023-06-10T04:07:14;101763.28;;;21.78;52.44
21109;BME280;10712;52.944;9.098;2023-06-10T04:09:40;101762.31;;;21.79;52.32
21109;BME280;10712;52.944;9.098;2023-06-10T04:12:07;101756.78;;;21.90;52.36
21109;BME280;10712;52.944;9.098;2023-06-10T04:14:35;101754.97;;;22.00;52.38
21109;BME280;10712;52.944;9.098;2023-06-10T04:17:04;101764.84;;;22.02;52.37
21109;BME280;10712;52.944;9.098;2023-06-10T04:19:32;101761.56;;;21.98;52.46
21109;BME280;10712;52.944;9.098;2023-06-10T04:22:00;101769.53;;;21.99;52.23
21109;BME280;10712;52.944;9.098;2023-06-10T04:24:26;101776.22;;;21.95;52.35
21109;BME280;10712;52.944;9.098;2023-06-10T04:26:52;101775.25;;;21.96;52.23
21109;BME280;10712;52.944;9.098;2023-06-10T04:29:18;101773.00;;;22.02;52.23
21109;BME280;10712;52.944;9.098;2023-06-10T04:31:44;101779.00;;;22.05;52.28
21109;BME280;10712;52.944;9.098;2023-06-10T04:34:12;101768.00;;;22.07;52.24
21109;BME280;10712;52.944;9.098;2023-06-10T04:36:39;101775.88;;;22.10;52.34
21109;BME280;10712;52.944;9.098;2023-06-10T04:39:06;101775.63;;;22.13;52.35
21109;BME280;10712;52.944;9.098;2023-06-10T04:41:33;101771.88;;;22.14;52.18
21109;BME280;10712;52.944;9.098;2023-06-10T04:43:58;101775.16;;;22.08;52.40
21109;BME280;10712;52.944;9.098;2023-06-10T04:46:24;101772.91;;;22.13;52.34
21109;BME280;10712;52.944;9.098;2023-06-10T04:48:50;101776.31;;;22.15;52.33
21109;BME280;10712;52.944;9.098;2023-06-10T04:51:16;101782.72;;;22.14;51.93
21109;BME280;10712;52.944;9.098;2023-06-10T04:53:42;101766.44;;;22.14;51.96
21109;BME280;10712;52.944;9.098;2023-06-10T04:56:08;101771.31;;;22.10;51.95
21109;BME280;10712;52.944;9.098;2023-06-10T04:58:34;101764.75;;;22.13;51.96
21109;BME280;10712;52.944;9.098;2023-06-10T05:01:00;101765.31;;;22.16;52.21
21109;BME280;10712;52.944;9.098;2023-06-10T05:03:27;101766.19;;;22.17;52.29
21109;BME280;10712;52.944;9.098;2023-06-10T05:05:53;101763.16;;;22.20;52.32
21109;BME280;10712;52.944;9.098;2023-06-10T05:08:18;101758.47;;;22.22;52.14
21109;BME280;10712;52.944;9.098;2023-06-10T05:10:44;101770.75;;;22.16;52.49
21109;BME280;10712;52.944;9.098;2023-06-10T05:13:10;101768.16;;;22.15;52.26
21109;BME280;10712;52.944;9.098;2023-06-10T05:15:36;101767.16;;;22.16;51.59
21109;BME280;10712;52.944;9.098;2023-06-10T05:18:02;101765.03;;;22.10;51.74
21109;BME280;10712;52.944;9.098;2023-06-10T05:20:28;101767.31;;;22.05;51.66
21109;BME280;10712;52.944;9.098;2023-06-10T05:22:54;101766.13;;;22.07;51.92
21109;BME280;10712;52.944;9.098;2023-06-10T05:25:20;101763.03;;;22.12;52.25
21109;BME280;10712;52.944;9.098;2023-06-10T05:27:46;101770.47;;;22.19;51.87
21109;BME280;10712;52.944;9.098;2023-06-10T05:30:12;101773.63;;;22.24;52.28
21109;BME280;10712;52.944;9.098;2023-06-10T05:32:38;101772.34;;;22.28;51.79
21109;BME280;10712;52.944;9.098;2023-06-10T05:35:04;101776.78;;;22.29;51.99
21109;BME280;10712;52.944;9.098;2023-06-10T05:37:30;101778.06;;;22.35;51.87
21109;BME280;10712;52.944;9.098;2023-06-10T05:39:56;101781.94;;;22.42;51.73
21109;BME280;10712;52.944;9.098;2023-06-10T05:42:21;101783.09;;;22.49;51.71
21109;BME280;10712;52.944;9.098;2023-06-10T05:44:47;101782.66;;;22.44;51.64
21109;BME280;10712;52.944;9.098;2023-06-10T05:47:13;101788.81;;;22.46;51.61
21109;BME280;10712;52.944;9.098;2023-06-10T05:49:39;101791.66;;;22.45;51.66
21109;BME280;10712;52.944;9.098;2023-06-10T05:52:05;101789.81;;;22.45;51.63
21109;BME280;10712;52.944;9.098;2023-06-10T05:54:31;101791.22;;;22.49;51.34
21109;BME280;10712;52.944;9.098;2023-06-10T05:56:57;101795.66;;;22.50;51.37
21109;BME280;10712;52.944;9.098;2023-06-10T05:59:22;101792.81;;;22.52;51.64
21109;BME280;10712;52.944;9.098;2023-06-10T06:01:49;101792.69;;;22.53;51.69
21109;BME280;10712;52.944;9.098;2023-06-10T06:04:16;101789.66;;;22.56;51.28
21109;BME280;10712;52.944;9.098;2023-06-10T06:06:42;101790.66;;;22.55;51.22
21109;BME280;10712;52.944;9.098;2023-06-10T06:09:08;101789.25;;;22.61;51.38
21109;BME280;10712;52.944;9.098;2023-06-10T06:11:34;101794.69;;;22.61;51.21
21109;BME280;10712;52.944;9.098;2023-06-10T06:14:01;101790.25;;;22.69;51.51
21109;BME280;10712;52.944;9.098;2023-06-10T06:16:27;101789.97;;;22.72;51.31
21109;BME280;10712;52.944;9.098;2023-06-10T06:18:52;101783.09;;;22.68;50.94
21109;BME280;10712;52.944;9.098;2023-06-10T06:21:18;101777.16;;;22.74;51.02
21109;BME280;10712;52.944;9.098;2023-06-10T06:23:44;101780.88;;;22.73;50.81
21109;BME280;10712;52.944;9.098;2023-06-10T06:26:10;101786.28;;;22.83;50.78
21109;BME280;10712;52.944;9.098;2023-06-10T06:28:36;101795.75;;;22.89;50.72
21109;BME280;10712;52.944;9.098;2023-06-10T06:31:01;101789.69;;;23.04;50.60
21109;BME280;10712;52.944;9.098;2023-06-10T06:33:27;101800.59;;;22.95;50.29
21109;BME280;10712;52.944;9.098;2023-06-10T06:35:53;101798.28;;;22.90;51.08
21109;BME280;10712;52.944;9.098;2023-06-10T06:38:19;101795.72;;;22.98;50.29
21109;BME280;10712;52.944;9.098;2023-06-10T06:40:44;101793.41;;;23.03;50.56
21109;BME280;10712;52.944;9.098;2023-06-10T06:43:10;101794.59;;;23.01;50.33
21109;BME280;10712;52.944;9.098;2023-06-10T06:45:42;101796.31;;;23.02;50.42
21109;BME280;10712;52.944;9.098;2023-06-10T06:48:07;101790.28;;;23.08;50.12
21109;BME280;10712;52.944;9.098;2023-06-10T06:50:33;101784.72;;;23.09;50.10
21109;BME280;10712;52.944;9.098;2023-06-10T06:52:59;101793.97;;;23.26;50.05
21109;BME280;10712;52.944;9.098;2023-06-10T06:55:25;101786.50;;;23.47;49.97
21109;BME280;10712;52.944;9.098;2023-06-10T06:57:50;101781.72;;;23.69;49.31
21109;BME280;10712;52.944;9.098;2023-06-10T07:00:16;101783.81;;;23.75;48.90
21109;BME280;10712;52.944;9.098;2023-06-10T07:02:42;101783.34;;;23.89;49.11
21109;BME280;10712;52.944;9.098;2023-06-10T07:05:08;101776.50;;;24.12;47.44
21109;BME280;10712;52.944;9.098;2023-06-10T07:07:35;101777.88;;;24.16;47.41
21109;BME280;10712;52.944;9.098;2023-06-10T07:10:00;101778.50;;;24.20;47.23
21109;BME280;10712;52.944;9.098;2023-06-10T07:12:26;101785.81;;;24.19;47.52
21109;BME280;10712;52.944;9.098;2023-06-10T07:14:52;101780.34;;;24.19;47.75
21109;BME280;10712;52.944;9.098;2023-06-10T07:17:18;101780.19;;;24.21;47.70
21109;BME280;10712;52.944;9.098;2023-06-10T07:19:45;101784.72;;;24.30;47.82
21109;BME280;10712;52.944;9.098;2023-06-10T07:22:11;101781.22;;;24.38;47.51
21109;BME280;10712;52.944;9.098;2023-06-10T07:24:37;101780.84;;;24.32;47.06
21109;BME280;10712;52.944;9.098;2023-06-10T07:27:03;101780.94;;;24.41;47.23
21109;BME280;10712;52.944;9.098;2023-06-10T07:29:28;101787.28;;;24.31;46.63
21109;BME280;10712;52.944;9.098;2023-06-10T07:31:54;101795.66;;;24.20;46.90
21109;BME280;10712;52.944;9.098;2023-06-10T07:34:20;101788.19;;;24.22;47.16
21109;BME280;10712;52.944;9.098;2023-06-10T07:36:46;101781.63;;;24.15;47.04
21109;BME280;10712;52.944;9.098;2023-06-10T07:39:11;101790.50;;;24.17;46.74
21109;BME280;10712;52.944;9.098;2023-06-10T07:41:37;101784.47;;;24.23;46.82
21109;BME280;10712;52.944;9.098;2023-06-10T07:44:03;101777.50;;;24.39;46.93
21109;BME280;10712;52.944;9.098;2023-06-10T07:46:29;101776.59;;;24.48;46.71
21109;BME280;10712;52.944;9.098;2023-06-10T07:48:55;101772.19;;;24.55;46.33
21109;BME280;10712;52.944;9.098;2023-06-10T07:51:21;101777.81;;;24.71;46.47
21109;BME280;10712;52.944;9.098;2023-06-10T07:53:47;101777.97;;;24.87;46.62
21109;BME280;10712;52.944;9.098;2023-06-10T07:56:13;101774.59;;;25.11;45.84
21109;BME280;10712;52.944;9.098;2023-06-10T07:58:39;101770.22;;;25.18;45.42
21109;BME280;10712;52.944;9.098;2023-06-10T08:01:05;101770.19;;;25.36;45.32
21109;BME280;10712;52.944;9.098;2023-06-10T08:03:30;101773.00;;;25.52;44.74
21109;BME280;10712;52.944;9.098;2023-06-10T08:05:56;101763.81;;;25.53;44.68
21109;BME280;10712;52.944;9.098;2023-06-10T08:08:22;101760.41;;;25.51;44.38
21109;BME280;10712;52.944;9.098;2023-06-10T08:10:48;101765.75;;;25.61;44.61
21109;BME280;10712;52.944;9.098;2023-06-10T08:13:15;101772.50;;;25.74;44.48
21109;BME280;10712;52.944;9.098;2023-06-10T08:15:40;101757.50;;;25.78;44.56
21109;BME280;10712;52.944;9.098;2023-06-10T08:18:06;101764.69;;;25.87;44.54
21109;BME280;10712;52.944;9.098;2023-06-10T08:20:32;101762.69;;;25.98;44.42
21109;BME280;10712;52.944;9.098;2023-06-10T08:22:58;101759.34;;;26.12;44.06
21109;BME280;10712;52.944;9.098;2023-06-10T08:25:23;101758.00;;;26.24;43.79
21109;BME280;10712;52.944;9.098;2023-06-10T08:27:49;101758.06;;;26.32;43.60
21109;BME280;10712;52.944;9.098;2023-06-10T08:30:16;101765.28;;;26.41;43.23
21109;BME280;10712;52.944;9.098;2023-06-10T08:32:42;101770.72;;;26.41;43.23
21109;BME280;10712;52.944;9.098;2023-06-10T08:35:08;101764.34;;;26.24;42.82
21109;BME280;10712;52.944;9.098;2023-06-10T08:37:34;101769.31;;;26.29;42.75
21109;BME280;10712;52.944;9.098;2023-06-10T08:39:59;101769.69;;;26.34;43.10
21109;BME280;10712;52.944;9.098;2023-06-10T08:42:33;101777.25;;;26.48;43.10
21109;BME280;10712;52.944;9.098;2023-06-10T08:45:02;101769.72;;;26.66;43.24
21109;BME280;10712;52.944;9.098;2023-06-10T08:47:30;101775.22;;;26.83;42.99
21109;BME280;10712;52.944;9.098;2023-06-10T08:50:03;101767.03;;;26.99;42.80
21109;BME280;10712;52.944;9.098;2023-06-10T08:52:42;101770.78;;;27.06;42.97
21109;BME280;10712;52.944;9.098;2023-06-10T08:55:27;101767.03;;;27.23;42.43
21109;BME280;10712;52.944;9.098;2023-06-10T08:57:55;101765.09;;;27.48;41.89
21109;BME280;10712;52.944;9.098;2023-06-10T09:00:22;101759.63;;;27.64;40.55
21109;BME280;10712;52.944;9.098;2023-06-10T09:02:48;101755.28;;;27.78;40.58
21109;BME280;10712;52.944;9.098;2023-06-10T09:05:16;101757.63;;;27.89;40.75
21109;BME280;10712;52.944;9.098;2023-06-10T09:07:42;101753.66;;;28.00;39.71
21109;BME280;10712;52.944;9.098;2023-06-10T09:10:11;101754.13;;;28.03;39.47
21109;BME280;10712;52.944;9.098;2023-06-10T09:12:36;101754.13;;;28.03;39.43
21109;BME280;10712;52.944;9.098;2023-06-10T09:15:05;101746.94;;;28.02;39.74
21109;BME280;10712;52.944;9.098;2023-06-10T09:17:31;101749.31;;;28.13;38.96
21109;BME280;10712;52.944;9.098;2023-06-10T09:19:57;101742.41;;;28.26;39.48
21109;BME280;10712;52.944;9.098;2023-06-10T09:22:23;101739.34;;;28.20;39.03
21109;BME280;10712;52.944;9.098;2023-06-10T09:24:50;101739.41;;;28.04;39.09
21109;BME280;10712;52.944;9.098;2023-06-10T09:27:16;101736.34;;;27.99;39.28
21109;BME280;10712;52.944;9.098;2023-06-10T09:29:53;101736.34;;;27.99;39.59
21109;BME280;10712;52.944;9.098;2023-06-10T09:32:20;101746.53;;;28.21;39.42
21109;BME280;10712;52.944;9.098;2023-06-10T09:34:47;101735.47;;;28.38;39.79
21109;BME280;10712;52.944;9.098;2023-06-10T09:37:21;101739.13;;;28.53;39.38
21109;BME280;10712;52.944;9.098;2023-06-10T09:40:07;101730.59;;;28.71;39.40
21109;BME280;10712;52.944;9.098;2023-06-10T09:42:38;101734.75;;;28.89;39.27
21109;BME280;10712;52.944;9.098;2023-06-10T09:45:05;101733.38;;;29.08;38.60
21109;BME280;10712;52.944;9.098;2023-06-10T09:47:32;101728.59;;;29.25;36.95
21109;BME280;10712;52.944;9.098;2023-06-10T09:49:57;101723.19;;;29.31;37.11
21109;BME280;10712;52.944;9.098;2023-06-10T09:52:28;101727.06;;;29.22;36.22
21109;BME280;10712;52.944;9.098;2023-06-10T09:55:02;101722.16;;;29.18;36.32
21109;BME280;10712;52.944;9.098;2023-06-10T09:57:32;101716.97;;;29.38;35.52
21109;BME280;10712;52.944;9.098;2023-06-10T10:00:09;101715.28;;;29.51;35.00
21109;BME280;10712;52.944;9.098;2023-06-10T10:02:50;101727.22;;;29.58;35.71
21109;BME280;10712;52.944;9.098;2023-06-10T10:05:18;101729.28;;;29.71;36.31
21109;BME280;10712;52.944;9.098;2023-06-10T10:07:45;101724.31;;;29.81;35.86
21109;BME280;10712;52.944;9.098;2023-06-10T10:10:13;101720.63;;;29.89;35.65
21109;BME280;10712;52.944;9.098;2023-06-10T10:12:40;101714.47;;;30.01;36.10
21109;BME280;10712;52.944;9.098;2023-06-10T10:15:11;101718.81;;;30.10;35.09
21109;BME280;10712;52.944;9.098;2023-06-10T10:20:29;101712.97;;;30.35;33.40
21109;BME280;10712;52.944;9.098;2023-06-10T10:22:57;101720.50;;;30.47;33.19
21109;BME280;10712;52.944;9.098;2023-06-10T10:25:29;101721.25;;;30.56;33.04
21109;BME280;10712;52.944;9.098;2023-06-10T10:28:12;101716.06;;;30.68;31.44
21109;BME280;10712;52.944;9.098;2023-06-10T10:30:43;101719.25;;;30.71;32.17
21109;BME280;10712;52.944;9.098;2023-06-10T10:33:16;101710.09;;;30.64;32.38
21109;BME280;10712;52.944;9.098;2023-06-10T10:35:45;101705.84;;;30.62;32.93
21109;BME280;10712;52.944;9.098;2023-06-10T10:38:11;101709.78;;;30.74;32.37
21109;BME280;10712;52.944;9.098;2023-06-10T10:40:38;101710.69;;;30.81;32.80
21109;BME280;10712;52.944;9.098;2023-06-10T10:43:05;101713.06;;;30.84;32.27
21109;BME280;10712;52.944;9.098;2023-06-10T10:45:35;101712.72;;;31.00;30.88
21109;BME280;10712;52.944;9.098;2023-06-10T10:48:08;101695.53;;;31.19;29.75
21109;BME280;10712;52.944;9.098;2023-06-10T10:50:38;101696.44;;;31.26;30.19
21109;BME280;10712;52.944;9.098;2023-06-10T10:53:05;101695.72;;;31.11;29.98
21109;BME280;10712;52.944;9.098;2023-06-10T10:55:32;101699.09;;;31.13;30.66
21109;BME280;10712;52.944;9.098;2023-06-10T11:00:44;101699.69;;;31.37;29.37
21109;BME280;10712;52.944;9.098;2023-06-10T11:03:14;101692.44;;;31.29;29.01
21109;BME280;10712;52.944;9.098;2023-06-10T11:05:45;101689.53;;;31.37;30.29
21109;BME280;10712;52.944;9.098;2023-06-10T11:10:59;101690.38;;;31.72;29.66
21109;BME280;10712;52.944;9.098;2023-06-10T11:13:27;101694.00;;;31.79;29.30
21109;BME280;10712;52.944;9.098;2023-06-10T11:15:58;101692.69;;;31.75;29.93
21109;BME280;10712;52.944;9.098;2023-06-10T11:18:28;101685.31;;;31.82;29.63
21109;BME280;10712;52.944;9.098;2023-06-10T11:21:02;101677.03;;;31.82;29.68
21109;BME280;10712;52.944;9.098;2023-06-10T11:31:29;101673.28;;;31.96;29.19
21109;BME280;10712;52.944;9.098;2023-06-10T11:34:01;101675.84;;;32.04;28.74
21109;BME280;10712;52.944;9.098;2023-06-10T11:36:29;101665.94;;;32.17;28.78
21109;BME280;10712;52.944;9.098;2023-06-10T11:39:04;101665.97;;;32.36;27.58
21109;BME280;10712;52.944;9.098;2023-06-10T11:41:35;101675.13;;;32.50;27.79
21109;BME280;10712;52.944;9.098;2023-06-10T11:46:33;101670.91;;;32.67;28.33
21109;BME280;10712;52.944;9.098;2023-06-10T11:49:00;101670.72;;;32.75;28.01
21109;BME280;10712;52.944;9.098;2023-06-10T11:51:36;101661.59;;;32.68;28.62
21109;BME280;10712;52.944;9.098;2023-06-10T11:54:03;101658.81;;;32.81;27.72
21109;BME280;10712;52.944;9.098;2023-06-10T11:56:31;101659.44;;;32.97;27.61
21109;BME280;10712;52.944;9.098;2023-06-10T11:58:58;101663.25;;;33.09;27.66
21109;BME280;10712;52.944;9.098;2023-06-10T12:01:26;101652.59;;;33.19;27.14
21109;BME280;10712;52.944;9.098;2023-06-10T12:03:59;101651.78;;;33.12;28.02
21109;BME280;10712;52.944;9.098;2023-06-10T12:06:26;101649.19;;;33.17;27.98
21109;BME280;10712;52.944;9.098;2023-06-10T12:08:53;101647.09;;;33.26;27.85
21109;BME280;10712;52.944;9.098;2023-06-10T12:11:20;101650.44;;;33.34;27.73
21109;BME280;10712;52.944;9.098;2023-06-10T12:13:48;101651.28;;;33.41;27.59
21109;BME280;10712;52.944;9.098;2023-06-10T12:16:17;101642.38;;;33.39;27.27
21109;BME280;10712;52.944;9.098;2023-06-10T12:18:46;101635.16;;;33.38;27.95
21109;BME280;10712;52.944;9.098;2023-06-10T12:21:24;101638.97;;;33.37;27.52
21109;BME280;10712;52.944;9.098;2023-06-10T12:24:10;101639.13;;;33.49;27.11
21109;BME280;10712;52.944;9.098;2023-06-10T12:26:42;101640.13;;;33.61;26.59
21109;BME280;10712;52.944;9.098;2023-06-10T12:29:25;101636.53;;;33.74;26.57
21109;BME280;10712;52.944;9.098;2023-06-10T12:32:00;101634.94;;;33.91;26.49
21109;BME280;10712;52.944;9.098;2023-06-10T12:34:33;101629.31;;;34.04;26.36
21109;BME280;10712;52.944;9.098;2023-06-10T12:37:01;101632.66;;;34.13;26.89
21109;BME280;10712;52.944;9.098;2023-06-10T12:39:31;101631.38;;;34.22;27.12
21109;BME280;10712;52.944;9.098;2023-06-10T12:41:58;101624.09;;;34.27;27.33
21109;BME280;10712;52.944;9.098;2023-06-10T12:44:33;101630.84;;;34.31;26.97
21109;BME280;10712;52.944;9.098;2023-06-10T12:47:06;101612.56;;;34.30;26.96
21109;BME280;10712;52.944;9.098;2023-06-10T12:49:32;101610.88;;;34.29;27.26
21109;BME280;10712;52.944;9.098;2023-06-10T12:51:58;101615.50;;;34.35;27.68
21109;BME280;10712;52.944;9.098;2023-06-10T12:54:24;101612.91;;;34.41;27.31
21109;BME280;10712;52.944;9.098;2023-06-10T12:56:49;101608.91;;;34.36;27.37
21109;BME280;10712;52.944;9.098;2023-06-10T12:59:15;101607.03;;;34.30;27.45
21109;BME280;10712;52.944;9.098;2023-06-10T13:01:41;101614.66;;;34.35;27.82
21109;BME280;10712;52.944;9.098;2023-06-10T13:04:07;101600.94;;;34.47;27.65
21109;BME280;10712;52.944;9.098;2023-06-10T13:06:33;101593.41;;;34.54;27.91
21109;BME280;10712;52.944;9.098;2023-06-10T13:09:03;101593.13;;;34.62;27.91
21109;BME280;10712;52.944;9.098;2023-06-10T13:11:28;101597.75;;;34.68;28.06
21109;BME280;10712;52.944;9.098;2023-06-10T13:13:54;101591.13;;;34.75;27.78
21109;BME280;10712;52.944;9.098;2023-06-10T13:16:20;101583.53;;;34.89;27.75